River Corners, Ohio
Current Conditions -  °F | °C
As of 10:53 PM on Saturday 22 Nov 2014 (Local Time) from KLPR Reporting Station
Overcast Overcast  
Wind Chill: 43°   Ceiling: 4200
Heat Index: 48°   Visibility: 10mi
Dew Point: 37°   Wind: 13mph
Humidity: 66%   Direction: 210°SSW
Pressure: 30.02"   Gusts: NA
Location:  41.1001°N, 82.0965°W
Report Text: KLPR 230353Z AUTO 21011KT 10SM OVC042 09/03 A3002 RMK AO2 SLP170 T00890028 TSNO
Loading
Personal Weather Stations






























Interactive Weather Map New forecast layout! Learn more

10-Day Weather Forecast

Advertisements
Track Severe Weather on mobile